createdAt,value
2022-07-25T00:01:51.483Z,8.23
2022-07-25T00:04:19.238Z,8.13
2022-07-25T00:06:46.782Z,8.65
2022-07-25T00:09:14.410Z,8.75
2022-07-25T00:11:41.927Z,8.20
2022-07-25T00:14:10.111Z,8.10
2022-07-25T00:16:40.674Z,9.63
2022-07-25T00:19:08.121Z,8.30
2022-07-25T00:21:35.575Z,9.50
2022-07-25T00:24:03.536Z,10.70
2022-07-25T00:26:33.530Z,8.63
2022-07-25T00:29:04.042Z,8.10
2022-07-25T00:31:31.656Z,8.35
2022-07-25T00:33:59.138Z,8.88
2022-07-25T00:36:26.596Z,8.77
2022-07-25T00:38:54.016Z,7.82
2022-07-25T00:41:21.611Z,7.28
2022-07-25T00:43:49.082Z,8.40
2022-07-25T00:46:18.915Z,7.97
2022-07-25T00:48:46.978Z,7.78
2022-07-25T00:51:14.559Z,9.90
2022-07-25T00:53:42.322Z,8.45
2022-07-25T00:56:09.810Z,7.97
2022-07-25T00:58:37.350Z,8.98
2022-07-25T01:01:04.866Z,8.15
2022-07-25T01:03:35.360Z,8.25
2022-07-25T01:06:02.925Z,8.95
2022-07-25T01:08:30.388Z,8.27
2022-07-25T01:10:57.839Z,8.85
2022-07-25T01:13:25.591Z,8.68
2022-07-25T01:15:53.167Z,10.45
2022-07-25T01:18:20.698Z,8.15
2022-07-25T01:20:48.330Z,8.25
2022-07-25T01:23:15.757Z,8.45
2022-07-25T01:25:43.236Z,9.57
2022-07-25T01:28:10.687Z,9.15
2022-07-25T01:30:38.206Z,9.23
2022-07-25T01:33:06.655Z,9.30
2022-07-25T01:35:36.260Z,9.05
2022-07-25T01:38:06.476Z,9.13
2022-07-25T01:40:36.991Z,8.80
2022-07-25T01:43:04.419Z,9.43
2022-07-25T01:45:31.883Z,9.20
2022-07-25T01:47:59.355Z,9.68
2022-07-25T01:50:27.309Z,10.52
2022-07-25T01:52:54.734Z,13.85
2022-07-25T01:55:22.256Z,9.63
2022-07-25T01:57:50.304Z,8.45
2022-07-25T02:00:18.243Z,8.70
2022-07-25T02:02:45.781Z,10.07
2022-07-25T02:05:14.002Z,8.60
2022-07-25T02:07:41.436Z,9.48
2022-07-25T02:10:09.286Z,10.15
2022-07-25T02:12:37.941Z,10.25
2022-07-25T02:15:06.206Z,9.77
2022-07-25T02:17:33.624Z,8.10
2022-07-25T02:20:01.088Z,8.93
2022-07-25T02:22:31.229Z,8.88
2022-07-25T02:24:58.672Z,9.18
2022-07-25T02:27:26.149Z,9.35
2022-07-25T02:29:53.637Z,7.75
2022-07-25T02:32:21.060Z,7.85
2022-07-25T02:34:49.294Z,9.07
2022-07-25T02:37:16.759Z,8.63
2022-07-25T02:39:44.175Z,8.18
2022-07-25T02:42:11.671Z,8.02
2022-07-25T02:44:39.153Z,8.40
2022-07-25T02:47:06.672Z,8.30
2022-07-25T02:49:36.220Z,8.85
2022-07-25T02:52:03.929Z,7.93
2022-07-25T02:54:31.356Z,8.73
2022-07-25T02:56:58.861Z,8.68
2022-07-25T02:59:26.294Z,7.75
2022-07-25T03:01:59.886Z,8.57
2022-07-25T03:04:27.368Z,8.48
2022-07-25T03:06:54.811Z,9.45
2022-07-25T03:09:22.276Z,8.38
2022-07-25T03:11:51.875Z,9.20
2022-07-25T03:14:19.379Z,7.93
2022-07-25T03:16:46.775Z,8.75
2022-07-25T03:19:17.237Z,9.50
2022-07-25T03:21:46.143Z,7.88
2022-07-25T03:24:15.484Z,9.43
2022-07-25T03:26:42.923Z,9.15
2022-07-25T03:29:10.389Z,8.35
2022-07-25T03:31:38.451Z,9.02
2022-07-25T03:34:08.387Z,9.70
2022-07-25T03:36:35.927Z,7.85
2022-07-25T03:39:05.657Z,8.75
2022-07-25T03:41:35.312Z,7.95
2022-07-25T03:44:03.095Z,10.05
2022-07-25T03:46:30.839Z,7.95
2022-07-25T03:48:58.363Z,9.10
2022-07-25T03:51:25.937Z,8.30
2022-07-25T03:54:02.963Z,8.25
2022-07-25T03:56:38.392Z,8.73
2022-07-25T03:59:13.316Z,9.23
2022-07-25T04:01:41.107Z,7.80
2022-07-25T04:04:10.061Z,8.45
2022-07-25T04:06:38.162Z,9.43
2022-07-25T04:09:06.140Z,8.48
2022-07-25T04:11:35.778Z,10.73
2022-07-25T04:14:03.410Z,8.27
2022-07-25T04:16:31.355Z,8.30
2022-07-25T04:19:01.688Z,8.32
2022-07-25T04:21:29.355Z,10.07
2022-07-25T04:23:56.842Z,8.38
2022-07-25T04:26:24.306Z,10.13
2022-07-25T04:28:51.750Z,9.50
2022-07-25T04:31:19.500Z,8.45
2022-07-25T04:33:46.996Z,8.40
2022-07-25T04:36:14.427Z,9.15
2022-07-25T04:38:41.992Z,9.70
2022-07-25T04:41:09.457Z,8.00
2022-07-25T04:43:37.158Z,9.63
2022-07-25T04:46:04.658Z,9.18
2022-07-25T04:48:32.156Z,8.52
2022-07-25T04:50:59.639Z,10.63
2022-07-25T04:53:27.485Z,9.55
2022-07-25T04:55:55.058Z,8.38
2022-07-25T04:58:25.403Z,8.15
2022-07-25T05:00:52.961Z,10.50
2022-07-25T05:03:20.398Z,7.80
2022-07-25T05:05:47.834Z,8.73
2022-07-25T05:08:15.283Z,8.68
2022-07-25T05:10:43.118Z,7.95
2022-07-25T05:13:10.755Z,9.00
2022-07-25T05:15:40.794Z,10.15
2022-07-25T05:18:08.322Z,8.65
2022-07-25T05:20:35.762Z,8.95
2022-07-25T05:23:03.209Z,7.97
2022-07-25T05:25:30.628Z,10.25
2022-07-25T05:27:58.736Z,9.50
2022-07-25T05:30:26.265Z,7.90
2022-07-25T05:32:55.095Z,8.88
2022-07-25T05:35:22.507Z,9.00
2022-07-25T05:37:49.871Z,8.95
2022-07-25T05:40:18.754Z,8.75
2022-07-25T05:42:46.877Z,9.02
2022-07-25T05:45:14.307Z,9.60
2022-07-25T05:47:41.788Z,8.60
2022-07-25T05:50:10.132Z,8.13
2022-07-25T05:52:37.562Z,8.93
2022-07-25T05:55:05.351Z,8.77
2022-07-25T05:57:32.819Z,8.68
2022-07-25T06:00:00.258Z,8.82
2022-07-25T06:02:27.819Z,9.00
2022-07-25T06:04:55.943Z,8.27
2022-07-25T06:07:23.307Z,8.57
2022-07-25T06:09:50.738Z,8.90
2022-07-25T06:12:19.038Z,8.27
2022-07-25T06:14:46.520Z,8.05
2022-07-25T06:17:14.008Z,9.55
2022-07-25T06:19:41.611Z,8.55
2022-07-25T06:22:09.439Z,8.23
2022-07-25T06:24:37.174Z,8.38
2022-07-25T06:27:04.623Z,8.68
2022-07-25T06:29:32.065Z,8.85
2022-07-25T06:31:59.644Z,9.93
2022-07-25T06:34:28.922Z,8.93
2022-07-25T06:37:00.085Z,8.45
2022-07-25T06:39:28.571Z,8.15
2022-07-25T06:41:56.041Z,10.05
2022-07-25T06:44:27.336Z,8.52
2022-07-25T06:46:54.889Z,7.90
2022-07-25T06:49:22.414Z,8.45
2022-07-25T06:51:49.865Z,8.13
2022-07-25T06:54:18.615Z,7.97
2022-07-25T06:56:46.180Z,8.57
2022-07-25T06:59:13.936Z,8.65
2022-07-25T07:01:41.400Z,7.78
2022-07-25T07:04:09.070Z,8.25
2022-07-25T07:06:39.972Z,8.70
2022-07-25T07:09:07.921Z,7.85
2022-07-25T07:11:35.401Z,8.60
2022-07-25T07:14:05.880Z,8.60
2022-07-25T07:16:33.779Z,8.40
2022-07-25T07:19:01.388Z,7.85
2022-07-25T07:21:28.869Z,8.25
2022-07-25T07:23:57.027Z,8.82
2022-07-25T07:26:24.764Z,8.23
2022-07-25T07:28:54.583Z,8.60
2022-07-25T07:31:22.114Z,9.30
2022-07-25T07:33:49.625Z,8.05
2022-07-25T07:36:17.158Z,9.35
2022-07-25T07:38:45.077Z,8.60
2022-07-25T07:41:12.840Z,8.32
2022-07-25T07:43:40.479Z,8.18
2022-07-25T07:46:07.976Z,8.10
2022-07-25T07:48:36.155Z,10.32
2022-07-25T07:51:03.836Z,8.35
2022-07-25T07:53:50.073Z,8.68
2022-07-25T07:56:19.091Z,8.57
2022-07-25T07:58:46.704Z,11.13
2022-07-25T08:01:14.212Z,8.52
2022-07-25T08:03:41.637Z,8.68
2022-07-25T08:06:09.153Z,11.68
2022-07-25T08:08:36.681Z,8.98
2022-07-25T08:11:04.214Z,9.73
2022-07-25T08:13:32.057Z,9.57
2022-07-25T08:16:03.313Z,8.70
2022-07-25T08:18:32.887Z,8.77
2022-07-25T08:21:03.079Z,9.52
2022-07-25T08:23:32.006Z,8.38
2022-07-25T08:26:00.693Z,10.75
2022-07-25T08:28:28.576Z,8.73
2022-07-25T08:30:56.307Z,8.05
2022-07-25T08:33:23.921Z,8.48
2022-07-25T08:35:53.680Z,11.43
2022-07-25T08:38:21.808Z,10.90
2022-07-25T08:40:49.320Z,9.40
2022-07-25T08:43:17.005Z,8.85
2022-07-25T08:45:48.461Z,8.75
2022-07-25T08:48:23.541Z,9.90
2022-07-25T08:50:51.444Z,8.52
2022-07-25T08:53:35.565Z,9.15
2022-07-25T08:56:13.289Z,9.10
2022-07-25T08:58:44.049Z,8.95
2022-07-25T09:01:15.043Z,9.10
2022-07-25T09:03:43.466Z,8.75
2022-07-25T09:06:19.513Z,10.80
2022-07-25T09:08:57.310Z,9.43
2022-07-25T09:11:33.502Z,9.55
2022-07-25T09:14:09.530Z,9.05
2022-07-25T09:16:43.177Z,9.18
2022-07-25T09:19:15.586Z,8.90
2022-07-25T09:21:45.487Z,10.18
2022-07-25T09:24:18.020Z,8.52
2022-07-25T09:26:49.854Z,8.85
2022-07-25T09:29:26.035Z,10.38
2022-07-25T09:31:54.470Z,8.45
2022-07-25T09:34:38.132Z,8.88
2022-07-25T09:37:09.789Z,8.95
2022-07-25T09:39:48.504Z,9.02
2022-07-25T09:42:25.798Z,8.90
2022-07-25T09:45:09.971Z,10.75
2022-07-25T09:47:40.769Z,9.27
2022-07-25T09:50:09.604Z,8.80
2022-07-25T09:52:37.089Z,9.10
2022-07-25T09:55:05.332Z,9.30
2022-07-25T09:57:32.811Z,8.30
2022-07-25T10:00:00.721Z,8.15
2022-07-25T10:02:49.611Z,8.48
2022-07-25T10:05:37.514Z,8.50
2022-07-25T10:08:08.899Z,9.50
2022-07-25T10:10:43.835Z,9.43
2022-07-25T10:13:18.223Z,9.40
2022-07-25T10:15:50.038Z,9.43
2022-07-25T10:18:22.573Z,9.68
2022-07-25T10:20:51.915Z,12.10
2022-07-25T10:23:20.559Z,9.52
2022-07-25T10:25:58.950Z,9.60
2022-07-25T10:28:44.586Z,11.07
2022-07-25T10:31:22.109Z,9.38
2022-07-25T10:33:55.130Z,9.23
2022-07-25T10:36:22.818Z,9.60
2022-07-25T10:38:56.174Z,9.18
2022-07-25T10:41:26.041Z,8.65
2022-07-25T10:43:56.512Z,9.43
2022-07-25T10:46:27.282Z,9.00
2022-07-25T10:49:03.316Z,9.18
2022-07-25T10:51:41.512Z,9.32
2022-07-25T10:54:13.378Z,8.80
2022-07-25T10:56:59.443Z,9.07
2022-07-25T10:59:36.494Z,8.77
2022-07-25T11:02:05.268Z,9.82
2022-07-25T11:04:35.800Z,10.27
2022-07-25T11:07:10.984Z,10.95
2022-07-25T11:09:38.680Z,9.05
2022-07-25T11:12:06.241Z,10.02
2022-07-25T11:14:38.111Z,8.93
2022-07-25T11:17:19.788Z,8.60
2022-07-25T11:20:00.125Z,9.15
2022-07-25T11:22:28.369Z,8.65
2022-07-25T11:24:57.288Z,8.93
2022-07-25T11:27:29.121Z,11.45
2022-07-25T11:30:16.353Z,8.50
2022-07-25T11:32:49.649Z,8.55
2022-07-25T11:35:21.281Z,9.15
2022-07-25T11:37:52.635Z,8.50
2022-07-25T11:40:20.476Z,9.27
2022-07-25T11:42:48.883Z,9.32
2022-07-25T11:45:18.412Z,9.10
2022-07-25T11:47:47.038Z,8.57
2022-07-25T11:50:18.650Z,11.00
2022-07-25T11:52:46.084Z,9.13
2022-07-25T11:55:16.413Z,11.25
2022-07-25T11:57:44.847Z,9.63
2022-07-25T12:00:20.767Z,8.95
2022-07-25T12:02:50.699Z,9.48
2022-07-25T12:05:20.958Z,9.40
2022-07-25T12:07:52.581Z,8.35
2022-07-25T12:10:24.354Z,9.40
2022-07-25T12:12:57.195Z,10.00
2022-07-25T12:15:28.758Z,8.20
2022-07-25T12:17:56.738Z,8.73
2022-07-25T12:20:25.890Z,10.23
2022-07-25T12:22:57.786Z,8.95
2022-07-25T12:25:30.459Z,8.77
2022-07-25T12:27:58.985Z,10.23
2022-07-25T12:30:27.566Z,10.57
2022-07-25T12:32:56.217Z,9.02
2022-07-25T12:35:23.724Z,8.57
2022-07-25T12:37:51.493Z,8.73
2022-07-25T12:40:19.006Z,11.68
2022-07-25T12:42:47.718Z,8.98
2022-07-25T12:45:18.402Z,11.68
2022-07-25T12:47:46.556Z,9.15
2022-07-25T12:50:14.831Z,10.07
2022-07-25T12:52:43.386Z,9.07
2022-07-25T12:55:15.371Z,9.02
2022-07-25T12:57:42.921Z,9.57
2022-07-25T13:00:12.938Z,9.15
2022-07-25T13:02:40.452Z,10.57
2022-07-25T13:05:08.089Z,9.13
2022-07-25T13:07:35.519Z,10.70
2022-07-25T13:10:03.790Z,9.60
2022-07-25T13:12:31.315Z,10.48
2022-07-25T13:14:58.773Z,9.55
2022-07-25T13:17:27.925Z,10.10
2022-07-25T13:19:55.925Z,9.38
2022-07-25T13:22:26.588Z,9.38
2022-07-25T13:24:54.005Z,9.60
2022-07-25T13:27:21.747Z,9.80
2022-07-25T13:29:54.696Z,10.63
2022-07-25T13:32:22.766Z,9.77
2022-07-25T13:34:50.430Z,9.80
2022-07-25T13:37:17.929Z,11.45
2022-07-25T13:39:45.371Z,10.23
2022-07-25T13:42:16.037Z,10.35
2022-07-25T13:44:43.609Z,10.35
2022-07-25T13:47:11.247Z,9.82
2022-07-25T13:49:38.849Z,10.05
2022-07-25T13:52:07.490Z,9.73
2022-07-25T13:54:34.987Z,10.15
2022-07-25T13:57:03.054Z,10.25
2022-07-25T13:59:30.545Z,9.57
2022-07-25T14:01:58.113Z,11.40
2022-07-25T14:04:25.688Z,11.65
2022-07-25T14:06:53.250Z,9.90
2022-07-25T14:09:22.172Z,9.45
2022-07-25T14:11:49.690Z,12.65
2022-07-25T14:14:17.354Z,10.13
2022-07-25T14:16:45.303Z,9.43
2022-07-25T14:19:16.326Z,9.57
2022-07-25T14:21:43.840Z,9.90
2022-07-25T14:24:11.333Z,10.27
2022-07-25T14:26:38.705Z,10.70
2022-07-25T14:29:10.420Z,10.35
2022-07-25T14:31:41.563Z,9.38
2022-07-25T14:34:09.149Z,9.60
2022-07-25T14:36:36.723Z,10.32
2022-07-25T14:39:04.613Z,10.18
2022-07-25T14:41:32.827Z,10.02
2022-07-25T14:44:00.707Z,9.75
2022-07-25T14:46:28.225Z,10.57
2022-07-25T14:48:55.807Z,10.45
2022-07-25T14:51:23.605Z,9.90
2022-07-25T14:53:53.301Z,10.13
2022-07-25T14:56:20.901Z,10.50
2022-07-25T14:58:48.317Z,10.57
2022-07-25T15:01:18.856Z,10.52
2022-07-25T15:03:46.537Z,10.23
2022-07-25T15:06:17.445Z,9.88
2022-07-25T15:08:45.440Z,9.93
2022-07-25T15:11:12.932Z,10.73
2022-07-25T15:13:40.361Z,10.45
2022-07-25T15:16:08.300Z,10.70
2022-07-25T15:18:52.321Z,10.15
2022-07-25T15:21:23.642Z,10.25
2022-07-25T15:23:52.570Z,10.35
2022-07-25T15:26:20.476Z,10.10
2022-07-25T15:28:48.787Z,10.43
2022-07-25T15:31:18.345Z,10.60
2022-07-25T15:33:45.840Z,10.50
2022-07-25T15:36:13.266Z,9.82
2022-07-25T15:38:40.785Z,9.82
2022-07-25T15:41:10.693Z,10.32
2022-07-25T15:43:39.940Z,10.70
2022-07-25T15:46:10.810Z,11.27
2022-07-25T15:48:38.678Z,10.10
2022-07-25T15:51:06.561Z,9.95
2022-07-25T15:53:34.065Z,10.27
2022-07-25T15:56:01.607Z,10.02
2022-07-25T15:58:29.011Z,10.15
2022-07-25T16:00:59.428Z,10.75
2022-07-25T16:03:26.951Z,10.18
2022-07-25T16:05:58.907Z,10.35
2022-07-25T16:08:26.300Z,10.77
2022-07-25T16:10:53.758Z,12.32
2022-07-25T16:13:21.302Z,10.52
2022-07-25T16:15:48.764Z,10.63
2022-07-25T16:18:16.234Z,10.98
2022-07-25T16:20:43.743Z,10.43
2022-07-25T16:23:11.268Z,10.95
2022-07-25T16:25:38.711Z,10.63
2022-07-25T16:28:06.525Z,10.23
2022-07-25T16:30:34.016Z,11.07
2022-07-25T16:33:01.451Z,11.55
2022-07-25T16:35:28.959Z,10.75
2022-07-25T16:37:56.416Z,12.80
2022-07-25T16:40:30.744Z,10.25
2022-07-25T16:43:00.387Z,10.60
2022-07-25T16:45:28.027Z,11.05
2022-07-25T16:47:55.471Z,10.40
2022-07-25T16:50:22.913Z,10.95
2022-07-25T16:52:50.340Z,10.45
2022-07-25T16:55:17.870Z,11.05
2022-07-25T16:57:45.324Z,10.60
2022-07-25T17:00:13.190Z,10.90
2022-07-25T17:02:44.041Z,10.23
2022-07-25T17:05:11.522Z,11.00
2022-07-25T17:07:39.900Z,10.77
2022-07-25T17:10:10.526Z,11.38
2022-07-25T17:12:38.950Z,10.90
2022-07-25T17:15:08.475Z,11.18
2022-07-25T17:17:36.009Z,11.07
2022-07-25T17:20:04.189Z,11.38
2022-07-25T17:22:31.658Z,10.82
2022-07-25T17:25:01.156Z,10.18
2022-07-25T17:27:28.624Z,11.20
2022-07-25T17:29:56.087Z,10.25
2022-07-25T17:32:27.833Z,10.60
2022-07-25T17:34:57.720Z,10.38
2022-07-25T17:37:27.705Z,11.18
2022-07-25T17:39:55.355Z,12.50
2022-07-25T17:42:24.011Z,10.75
2022-07-25T17:44:51.882Z,10.55
2022-07-25T17:47:19.396Z,11.07
2022-07-25T17:49:46.827Z,10.98
2022-07-25T17:52:15.676Z,11.13
2022-07-25T17:54:43.200Z,10.52
2022-07-25T17:57:10.706Z,11.45
2022-07-25T17:59:38.164Z,10.98
2022-07-25T18:02:05.693Z,10.57
2022-07-25T18:04:33.475Z,10.60
2022-07-25T18:07:00.885Z,11.13
2022-07-25T18:09:28.427Z,11.65
2022-07-25T18:11:55.966Z,10.82
2022-07-25T18:14:24.002Z,10.55
2022-07-25T18:16:51.480Z,10.65
2022-07-25T18:19:19.003Z,10.82
2022-07-25T18:21:47.711Z,11.25
2022-07-25T18:24:15.170Z,12.05
2022-07-25T18:26:42.587Z,11.52
2022-07-25T18:29:13.072Z,10.65
2022-07-25T18:31:40.635Z,11.50
2022-07-25T18:34:08.547Z,12.68
2022-07-25T18:36:40.219Z,10.80
2022-07-25T18:39:07.658Z,9.85
2022-07-25T18:41:35.427Z,10.63
2022-07-25T18:44:06.728Z,10.88
2022-07-25T18:46:34.848Z,11.40
2022-07-25T18:49:03.174Z,13.73
2022-07-25T18:51:30.647Z,11.23
2022-07-25T18:53:58.089Z,10.20
2022-07-25T18:56:25.590Z,10.30
2022-07-25T18:58:53.123Z,10.75
2022-07-25T19:01:21.185Z,10.75
2022-07-25T19:03:48.750Z,11.15
2022-07-25T19:06:16.473Z,10.93
2022-07-25T19:08:43.971Z,10.43
2022-07-25T19:11:11.447Z,10.65
2022-07-25T19:13:49.518Z,10.80
2022-07-25T19:16:17.947Z,11.48
2022-07-25T19:18:45.467Z,13.85
2022-07-25T19:21:12.978Z,12.02
2022-07-25T19:23:40.415Z,12.18
2022-07-25T19:26:07.854Z,12.65
2022-07-25T19:28:35.627Z,11.15
2022-07-25T19:31:06.265Z,11.45
2022-07-25T19:33:36.022Z,11.73
2022-07-25T19:36:04.395Z,11.40
2022-07-25T19:38:32.392Z,11.30
2022-07-25T19:41:00.236Z,14.10
2022-07-25T19:43:27.756Z,11.35
2022-07-25T19:45:55.212Z,11.07
2022-07-25T19:48:23.995Z,10.85
2022-07-25T19:50:52.167Z,11.35
2022-07-25T19:53:19.660Z,11.05
2022-07-25T19:55:47.117Z,11.65
2022-07-25T19:58:14.490Z,10.85
2022-07-25T20:00:41.939Z,12.98
2022-07-25T20:03:09.368Z,11.65
2022-07-25T20:05:36.876Z,12.27
2022-07-25T20:08:04.552Z,10.93
2022-07-25T20:10:31.954Z,11.13
2022-07-25T20:13:01.446Z,10.65
2022-07-25T20:15:29.270Z,10.88
2022-07-25T20:17:56.963Z,12.00
2022-07-25T20:20:25.393Z,10.98
2022-07-25T20:22:53.276Z,12.43
2022-07-25T20:25:21.333Z,12.20
2022-07-25T20:27:51.525Z,12.00
2022-07-25T20:30:19.093Z,14.57
2022-07-25T20:32:48.768Z,12.80
2022-07-25T20:35:16.205Z,13.20
2022-07-25T20:37:43.640Z,11.63
2022-07-25T20:40:12.192Z,12.02
2022-07-25T20:42:40.643Z,11.85
2022-07-25T20:45:08.796Z,12.27
2022-07-25T20:47:36.233Z,11.23
2022-07-25T20:50:03.954Z,11.00
2022-07-25T20:52:35.176Z,11.93
2022-07-25T20:55:06.775Z,11.40
2022-07-25T20:57:34.956Z,12.18
2022-07-25T21:00:02.682Z,11.02
2022-07-25T21:02:30.179Z,11.98
2022-07-25T21:04:57.657Z,12.75
2022-07-25T21:07:25.134Z,11.30
2022-07-25T21:09:55.149Z,12.18
2022-07-25T21:12:22.592Z,12.40
2022-07-25T21:14:50.101Z,11.25
2022-07-25T21:17:17.572Z,12.10
2022-07-25T21:19:46.148Z,11.48
2022-07-25T21:22:13.663Z,13.05
2022-07-25T21:24:41.680Z,14.35
2022-07-25T21:27:09.216Z,11.60
2022-07-25T21:29:36.639Z,11.23
2022-07-25T21:32:04.812Z,12.55
2022-07-25T21:34:33.540Z,21.45
2022-07-25T21:37:01.032Z,14.07
2022-07-25T21:39:29.540Z,12.50
2022-07-25T21:41:59.624Z,13.27
2022-07-25T21:44:28.556Z,18.30
2022-07-25T21:46:55.975Z,16.23
2022-07-25T21:49:42.753Z,16.83
2022-07-25T21:52:13.725Z,16.35
2022-07-25T21:54:42.552Z,15.52
2022-07-25T21:57:13.224Z,11.90
2022-07-25T21:59:42.477Z,17.13
2022-07-25T22:02:10.089Z,12.48
2022-07-25T22:04:37.552Z,16.85
2022-07-25T22:07:04.972Z,19.80
2022-07-25T22:09:32.367Z,15.32
2022-07-25T22:11:59.818Z,13.00
2022-07-25T22:14:27.300Z,14.70
2022-07-25T22:16:54.805Z,17.10
2022-07-25T22:19:23.623Z,18.52
2022-07-25T22:21:51.163Z,17.75
2022-07-25T22:24:18.569Z,11.43
2022-07-25T22:26:46.031Z,17.27
2022-07-25T22:29:13.513Z,15.60
2022-07-25T22:31:41.036Z,12.57
2022-07-25T22:34:09.186Z,12.27
2022-07-25T22:36:36.628Z,13.98
2022-07-25T22:39:04.279Z,14.48
2022-07-25T22:41:32.068Z,13.50
2022-07-25T22:44:00.201Z,15.07
2022-07-25T22:46:29.343Z,14.70
2022-07-25T22:51:25.178Z,14.80
2022-07-25T22:53:52.684Z,12.40
2022-07-25T22:56:20.136Z,14.73
2022-07-25T22:58:49.169Z,14.27
2022-07-25T23:01:17.830Z,12.23
2022-07-25T23:03:45.786Z,12.43
2022-07-25T23:06:16.394Z,10.75
2022-07-25T23:08:43.792Z,11.57
2022-07-25T23:11:11.292Z,10.85
2022-07-25T23:13:38.720Z,10.48
2022-07-25T23:16:10.490Z,11.35
2022-07-25T23:18:38.502Z,14.10
2022-07-25T23:21:06.187Z,13.00
2022-07-25T23:23:33.645Z,11.93
2022-07-25T23:26:01.257Z,9.85
2022-07-25T23:28:28.841Z,11.30
2022-07-25T23:30:56.308Z,10.13
2022-07-25T23:33:25.378Z,13.05
2022-07-25T23:35:56.875Z,10.23
2022-07-25T23:38:24.694Z,10.43
2022-07-25T23:40:54.095Z,10.15
2022-07-25T23:43:54.986Z,9.52
2022-07-25T23:46:08.999Z,11.80
2022-07-25T23:48:37.491Z,11.05
2022-07-25T23:51:05.008Z,9.25
2022-07-25T23:53:34.525Z,8.52
2022-07-25T23:56:01.996Z,7.93
2022-07-25T23:58:29.452Z,9.32
